sensor_id;sensor_type;location;lat;lon;timestamp;temperature;humidity
18611;DHT22;9435;52.122;5.502;2022-10-31T00:02:06;12.60;99.90
18611;DHT22;9435;52.122;5.502;2022-10-31T00:04:33;12.60;99.90
18611;DHT22;9435;52.122;5.502;2022-10-31T00:07:01;12.60;99.90
18611;DHT22;9435;52.122;5.502;2022-10-31T00:09:28;12.60;99.90
18611;DHT22;9435;52.122;5.502;2022-10-31T00:11:55;12.60;99.90
18611;DHT22;9435;52.122;5.502;2022-10-31T00:14:22;12.60;99.90
18611;DHT22;9435;52.122;5.502;2022-10-31T00:16:49;12.60;99.90
18611;DHT22;9435;52.122;5.502;2022-10-31T00:19:16;12.60;99.90
18611;DHT22;9435;52.122;5.502;2022-10-31T00:21:43;12.60;99.90
18611;DHT22;9435;52.122;5.502;2022-10-31T00:24:11;12.50;99.90
18611;DHT22;9435;52.122;5.502;2022-10-31T00:26:38;12.50;99.90
18611;DHT22;9435;52.122;5.502;2022-10-31T00:29:05;12.60;99.90
18611;DHT22;9435;52.122;5.502;2022-10-31T00:31:32;12.60;99.90
18611;DHT22;9435;52.122;5.502;2022-10-31T00:33:59;12.60;99.90
18611;DHT22;9435;52.122;5.502;2022-10-31T00:36:28;12.60;99.90
18611;DHT22;9435;52.122;5.502;2022-10-31T00:38:55;12.50;99.90
18611;DHT22;9435;52.122;5.502;2022-10-31T00:41:25;12.60;99.90
18611;DHT22;9435;52.122;5.502;2022-10-31T00:43:52;12.60;99.90
18611;DHT22;9435;52.122;5.502;2022-10-31T00:46:19;12.60;99.90
18611;DHT22;9435;52.122;5.502;2022-10-31T00:48:46;12.60;99.90
18611;DHT22;9435;52.122;5.502;2022-10-31T00:51:13;12.60;99.90
18611;DHT22;9435;52.122;5.502;2022-10-31T00:53:40;12.50;99.90
18611;DHT22;9435;52.122;5.502;2022-10-31T00:56:07;12.60;99.90
18611;DHT22;9435;52.122;5.502;2022-10-31T00:58:35;12.60;99.90
18611;DHT22;9435;52.122;5.502;2022-10-31T01:01:03;12.50;99.90
18611;DHT22;9435;52.122;5.502;2022-10-31T01:03:32;12.50;99.90
18611;DHT22;9435;52.122;5.502;2022-10-31T01:06:01;12.60;99.90
18611;DHT22;9435;52.122;5.502;2022-10-31T01:08:29;12.50;99.90
18611;DHT22;9435;52.122;5.502;2022-10-31T01:11:01;12.50;99.90
18611;DHT22;9435;52.122;5.502;2022-10-31T01:13:28;12.60;99.90
18611;DHT22;9435;52.122;5.502;2022-10-31T01:15:58;12.50;99.90
18611;DHT22;9435;52.122;5.502;2022-10-31T01:18:25;12.50;99.90
18611;DHT22;9435;52.122;5.502;2022-10-31T01:21:00;12.40;99.90
18611;DHT22;9435;52.122;5.502;2022-10-31T01:23:28;12.40;99.90
18611;DHT22;9435;52.122;5.502;2022-10-31T01:26:06;12.40;99.90
18611;DHT22;9435;52.122;5.502;2022-10-31T01:28:34;12.40;99.90
18611;DHT22;9435;52.122;5.502;2022-10-31T01:31:05;12.30;99.90
18611;DHT22;9435;52.122;5.502;2022-10-31T01:33:32;12.30;99.90
18611;DHT22;9435;52.122;5.502;2022-10-31T01:36:00;12.20;99.90
18611;DHT22;9435;52.122;5.502;2022-10-31T01:38:27;12.20;99.90
18611;DHT22;9435;52.122;5.502;2022-10-31T01:40:54;12.20;99.90
18611;DHT22;9435;52.122;5.502;2022-10-31T01:43:21;12.20;99.90
18611;DHT22;9435;52.122;5.502;2022-10-31T01:45:52;12.10;99.90
18611;DHT22;9435;52.122;5.502;2022-10-31T01:48:24;12.10;99.90
18611;DHT22;9435;52.122;5.502;2022-10-31T01:50:57;12.10;99.90
18611;DHT22;9435;52.122;5.502;2022-10-31T01:53:25;12.00;99.90
18611;DHT22;9435;52.122;5.502;2022-10-31T01:55:52;12.00;99.90
18611;DHT22;9435;52.122;5.502;2022-10-31T01:58:22;12.00;99.90
18611;DHT22;9435;52.122;5.502;2022-10-31T02:00:55;11.90;99.90
18611;DHT22;9435;52.122;5.502;2022-10-31T02:03:25;11.80;99.90
18611;DHT22;9435;52.122;5.502;2022-10-31T02:05:53;11.80;99.90
18611;DHT22;9435;52.122;5.502;2022-10-31T02:08:25;11.70;99.90
18611;DHT22;9435;52.122;5.502;2022-10-31T02:10:53;11.70;99.90
18611;DHT22;9435;52.122;5.502;2022-10-31T02:13:21;11.70;99.90
18611;DHT22;9435;52.122;5.502;2022-10-31T02:15:50;11.60;99.90
18611;DHT22;9435;52.122;5.502;2022-10-31T02:18:18;11.60;99.90
18611;DHT22;9435;52.122;5.502;2022-10-31T02:20:56;11.50;99.90
18611;DHT22;9435;52.122;5.502;2022-10-31T02:30:05;11.40;99.90
18611;DHT22;9435;52.122;5.502;2022-10-31T02:32:54;11.30;99.90
18611;DHT22;9435;52.122;5.502;2022-10-31T02:35:32;11.30;99.90
18611;DHT22;9435;52.122;5.502;2022-10-31T02:38:06;11.30;99.90
18611;DHT22;9435;52.122;5.502;2022-10-31T02:40:39;11.20;99.90
18611;DHT22;9435;52.122;5.502;2022-10-31T02:43:16;11.20;99.90
18611;DHT22;9435;52.122;5.502;2022-10-31T02:45:51;11.10;99.90
18611;DHT22;9435;52.122;5.502;2022-10-31T02:48:24;11.10;99.90
18611;DHT22;9435;52.122;5.502;2022-10-31T02:50:55;11.10;99.90
18611;DHT22;9435;52.122;5.502;2022-10-31T02:53:23;11.10;99.90
18611;DHT22;9435;52.122;5.502;2022-10-31T02:55:56;11.00;99.90
18611;DHT22;9435;52.122;5.502;2022-10-31T02:58:27;11.00;99.90
18611;DHT22;9435;52.122;5.502;2022-10-31T03:03:57;10.90;99.90
18611;DHT22;9435;52.122;5.502;2022-10-31T03:06:30;10.80;99.90
18611;DHT22;9435;52.122;5.502;2022-10-31T03:09:05;10.80;99.90
18611;DHT22;9435;52.122;5.502;2022-10-31T03:11:44;10.80;99.90
18611;DHT22;9435;52.122;5.502;2022-10-31T03:14:16;10.70;99.90
18611;DHT22;9435;52.122;5.502;2022-10-31T03:16:46;10.70;99.90
18611;DHT22;9435;52.122;5.502;2022-10-31T03:19:17;10.70;99.90
18611;DHT22;9435;52.122;5.502;2022-10-31T03:21:48;10.70;99.90
18611;DHT22;9435;52.122;5.502;2022-10-31T03:24:18;10.60;99.90
18611;DHT22;9435;52.122;5.502;2022-10-31T03:26:49;10.50;99.90
18611;DHT22;9435;52.122;5.502;2022-10-31T03:29:19;10.30;99.90
18611;DHT22;9435;52.122;5.502;2022-10-31T03:31:50;10.20;99.90
18611;DHT22;9435;52.122;5.502;2022-10-31T03:34:20;9.90;99.90
18611;DHT22;9435;52.122;5.502;2022-10-31T03:36:48;9.70;99.90
18611;DHT22;9435;52.122;5.502;2022-10-31T03:39:19;9.60;99.90
18611;DHT22;9435;52.122;5.502;2022-10-31T03:41:50;9.50;99.90
18611;DHT22;9435;52.122;5.502;2022-10-31T03:44:21;9.50;99.90
18611;DHT22;9435;52.122;5.502;2022-10-31T03:46:49;9.60;99.90
18611;DHT22;9435;52.122;5.502;2022-10-31T03:49:18;9.70;99.90
18611;DHT22;9435;52.122;5.502;2022-10-31T03:51:48;9.70;99.90
18611;DHT22;9435;52.122;5.502;2022-10-31T03:54:23;9.80;99.90
18611;DHT22;9435;52.122;5.502;2022-10-31T03:56:54;9.70;99.90
18611;DHT22;9435;52.122;5.502;2022-10-31T03:59:25;9.60;99.90
18611;DHT22;9435;52.122;5.502;2022-10-31T04:01:56;9.60;99.90
18611;DHT22;9435;52.122;5.502;2022-10-31T04:04:26;9.60;99.90
18611;DHT22;9435;52.122;5.502;2022-10-31T04:06:55;9.60;99.90
18611;DHT22;9435;52.122;5.502;2022-10-31T04:09:24;9.60;99.90
18611;DHT22;9435;52.122;5.502;2022-10-31T04:11:54;9.60;99.90
18611;DHT22;9435;52.122;5.502;2022-10-31T04:14:23;9.70;99.90
18611;DHT22;9435;52.122;5.502;2022-10-31T04:16:51;9.70;99.90
18611;DHT22;9435;52.122;5.502;2022-10-31T04:19:18;9.70;99.90
18611;DHT22;9435;52.122;5.502;2022-10-31T04:21:47;9.70;99.90
18611;DHT22;9435;52.122;5.502;2022-10-31T04:24:14;9.70;99.90
18611;DHT22;9435;52.122;5.502;2022-10-31T04:26:41;9.70;99.90
18611;DHT22;9435;52.122;5.502;2022-10-31T04:29:07;9.60;99.90
18611;DHT22;9435;52.122;5.502;2022-10-31T04:31:34;9.40;99.90
18611;DHT22;9435;52.122;5.502;2022-10-31T04:34:01;9.40;99.90
18611;DHT22;9435;52.122;5.502;2022-10-31T04:36:28;9.30;99.90
18611;DHT22;9435;52.122;5.502;2022-10-31T04:38:57;9.30;99.90
18611;DHT22;9435;52.122;5.502;2022-10-31T04:41:23;9.30;99.90
18611;DHT22;9435;52.122;5.502;2022-10-31T04:43:50;9.30;99.90
18611;DHT22;9435;52.122;5.502;2022-10-31T04:46:17;9.40;99.90
18611;DHT22;9435;52.122;5.502;2022-10-31T04:48:44;9.40;99.90
18611;DHT22;9435;52.122;5.502;2022-10-31T04:51:11;9.40;99.90
18611;DHT22;9435;52.122;5.502;2022-10-31T04:53:38;9.40;99.90
18611;DHT22;9435;52.122;5.502;2022-10-31T04:56:07;9.40;99.90
18611;DHT22;9435;52.122;5.502;2022-10-31T04:58:34;9.30;99.90
18611;DHT22;9435;52.122;5.502;2022-10-31T05:01:01;9.30;99.90
18611;DHT22;9435;52.122;5.502;2022-10-31T05:03:28;9.20;99.90
18611;DHT22;9435;52.122;5.502;2022-10-31T05:05:55;9.10;99.90
18611;DHT22;9435;52.122;5.502;2022-10-31T05:08:21;9.10;99.90
18611;DHT22;9435;52.122;5.502;2022-10-31T05:10:48;9.10;99.90
18611;DHT22;9435;52.122;5.502;2022-10-31T05:13:17;9.10;99.90
18611;DHT22;9435;52.122;5.502;2022-10-31T05:15:44;9.10;99.90
18611;DHT22;9435;52.122;5.502;2022-10-31T05:18:11;9.10;99.90
18611;DHT22;9435;52.122;5.502;2022-10-31T05:20:38;9.20;99.90
18611;DHT22;9435;52.122;5.502;2022-10-31T05:23:04;9.20;99.90
18611;DHT22;9435;52.122;5.502;2022-10-31T05:25:31;9.30;99.90
18611;DHT22;9435;52.122;5.502;2022-10-31T05:27:58;9.30;99.90
18611;DHT22;9435;52.122;5.502;2022-10-31T05:30:28;9.30;99.90
18611;DHT22;9435;52.122;5.502;2022-10-31T05:32:56;9.10;99.90
18611;DHT22;9435;52.122;5.502;2022-10-31T05:35:25;9.10;99.90
18611;DHT22;9435;52.122;5.502;2022-10-31T05:37:52;9.10;99.90
18611;DHT22;9435;52.122;5.502;2022-10-31T05:40:20;9.10;99.90
18611;DHT22;9435;52.122;5.502;2022-10-31T05:42:50;9.10;99.90
18611;DHT22;9435;52.122;5.502;2022-10-31T05:45:18;9.10;99.90
18611;DHT22;9435;52.122;5.502;2022-10-31T05:47:51;9.10;99.90
18611;DHT22;9435;52.122;5.502;2022-10-31T05:50:19;9.10;99.90
18611;DHT22;9435;52.122;5.502;2022-10-31T05:52:46;9.10;99.90
18611;DHT22;9435;52.122;5.502;2022-10-31T05:55:13;9.10;99.90
18611;DHT22;9435;52.122;5.502;2022-10-31T05:57:40;9.10;99.90
18611;DHT22;9435;52.122;5.502;2022-10-31T06:00:08;9.10;99.90
18611;DHT22;9435;52.122;5.502;2022-10-31T06:02:35;9.10;99.90
18611;DHT22;9435;52.122;5.502;2022-10-31T06:05:04;9.00;99.90
18611;DHT22;9435;52.122;5.502;2022-10-31T06:07:35;9.00;99.90
18611;DHT22;9435;52.122;5.502;2022-10-31T06:10:04;9.00;99.90
18611;DHT22;9435;52.122;5.502;2022-10-31T06:12:31;9.00;99.90
18611;DHT22;9435;52.122;5.502;2022-10-31T06:15:03;9.10;99.90
18611;DHT22;9435;52.122;5.502;2022-10-31T06:17:30;9.00;99.90
18611;DHT22;9435;52.122;5.502;2022-10-31T06:19:57;9.00;99.90
18611;DHT22;9435;52.122;5.502;2022-10-31T06:22:26;9.10;99.90
18611;DHT22;9435;52.122;5.502;2022-10-31T06:24:53;9.10;99.90
18611;DHT22;9435;52.122;5.502;2022-10-31T06:27:20;9.10;99.90
18611;DHT22;9435;52.122;5.502;2022-10-31T06:29:47;9.10;99.90
18611;DHT22;9435;52.122;5.502;2022-10-31T06:32:15;9.10;99.90
18611;DHT22;9435;52.122;5.502;2022-10-31T06:34:44;9.10;99.90
18611;DHT22;9435;52.122;5.502;2022-10-31T06:37:14;9.10;99.90
18611;DHT22;9435;52.122;5.502;2022-10-31T06:39:42;9.10;99.90
18611;DHT22;9435;52.122;5.502;2022-10-31T06:42:09;9.30;99.90
18611;DHT22;9435;52.122;5.502;2022-10-31T06:44:36;9.20;99.90
18611;DHT22;9435;52.122;5.502;2022-10-31T06:47:03;9.30;99.90
18611;DHT22;9435;52.122;5.502;2022-10-31T06:49:31;9.30;99.90
18611;DHT22;9435;52.122;5.502;2022-10-31T06:51:58;9.30;99.90
18611;DHT22;9435;52.122;5.502;2022-10-31T06:54:25;9.40;99.90
18611;DHT22;9435;52.122;5.502;2022-10-31T06:56:54;9.40;99.90
18611;DHT22;9435;52.122;5.502;2022-10-31T06:59:21;9.50;99.90
18611;DHT22;9435;52.122;5.502;2022-10-31T07:01:49;9.50;99.90
18611;DHT22;9435;52.122;5.502;2022-10-31T07:04:16;9.60;99.90
18611;DHT22;9435;52.122;5.502;2022-10-31T07:06:43;9.70;99.90
18611;DHT22;9435;52.122;5.502;2022-10-31T07:09:10;9.70;99.90
18611;DHT22;9435;52.122;5.502;2022-10-31T07:11:37;9.70;99.90
18611;DHT22;9435;52.122;5.502;2022-10-31T07:14:06;9.70;99.90
18611;DHT22;9435;52.122;5.502;2022-10-31T07:16:33;9.80;99.90
18611;DHT22;9435;52.122;5.502;2022-10-31T07:18:59;9.80;99.90
18611;DHT22;9435;52.122;5.502;2022-10-31T07:21:26;9.80;99.90
18611;DHT22;9435;52.122;5.502;2022-10-31T07:23:53;9.90;99.90
18611;DHT22;9435;52.122;5.502;2022-10-31T07:26:20;9.90;99.90
18611;DHT22;9435;52.122;5.502;2022-10-31T07:28:47;10.00;99.90
18611;DHT22;9435;52.122;5.502;2022-10-31T07:31:16;10.00;99.90
18611;DHT22;9435;52.122;5.502;2022-10-31T07:33:43;10.10;99.90
18611;DHT22;9435;52.122;5.502;2022-10-31T07:36:10;10.10;99.90
18611;DHT22;9435;52.122;5.502;2022-10-31T07:38:37;10.10;99.90
18611;DHT22;9435;52.122;5.502;2022-10-31T07:41:04;10.10;99.90
18611;DHT22;9435;52.122;5.502;2022-10-31T07:43:31;10.20;99.90
18611;DHT22;9435;52.122;5.502;2022-10-31T07:45:58;10.20;99.90
18611;DHT22;9435;52.122;5.502;2022-10-31T07:48:26;10.20;99.90
18611;DHT22;9435;52.122;5.502;2022-10-31T07:50:54;10.30;99.90
18611;DHT22;9435;52.122;5.502;2022-10-31T07:53:21;10.30;99.90
18611;DHT22;9435;52.122;5.502;2022-10-31T07:55:48;10.40;99.90
18611;DHT22;9435;52.122;5.502;2022-10-31T07:58:16;10.50;99.90
18611;DHT22;9435;52.122;5.502;2022-10-31T08:00:45;10.50;99.90
18611;DHT22;9435;52.122;5.502;2022-10-31T08:03:13;10.60;99.90
18611;DHT22;9435;52.122;5.502;2022-10-31T08:05:42;10.60;99.90
18611;DHT22;9435;52.122;5.502;2022-10-31T08:08:11;10.60;99.90
18611;DHT22;9435;52.122;5.502;2022-10-31T08:10:38;10.60;99.90
18611;DHT22;9435;52.122;5.502;2022-10-31T08:13:07;10.70;99.90
18611;DHT22;9435;52.122;5.502;2022-10-31T08:15:35;10.70;99.90
18611;DHT22;9435;52.122;5.502;2022-10-31T08:18:05;10.80;99.90
18611;DHT22;9435;52.122;5.502;2022-10-31T08:20:32;10.90;99.90
18611;DHT22;9435;52.122;5.502;2022-10-31T08:23:02;11.00;99.90
18611;DHT22;9435;52.122;5.502;2022-10-31T08:25:31;11.10;99.90
18611;DHT22;9435;52.122;5.502;2022-10-31T08:27:59;11.10;99.90
18611;DHT22;9435;52.122;5.502;2022-10-31T08:30:28;11.20;99.90
18611;DHT22;9435;52.122;5.502;2022-10-31T08:33:00;11.40;99.90
18611;DHT22;9435;52.122;5.502;2022-10-31T08:35:28;11.50;99.90
18611;DHT22;9435;52.122;5.502;2022-10-31T08:37:55;11.60;99.90
18611;DHT22;9435;52.122;5.502;2022-10-31T08:40:27;11.60;99.90
18611;DHT22;9435;52.122;5.502;2022-10-31T08:42:58;11.70;99.90
18611;DHT22;9435;52.122;5.502;2022-10-31T08:45:26;11.70;99.90
18611;DHT22;9435;52.122;5.502;2022-10-31T08:47:57;11.70;99.90
18611;DHT22;9435;52.122;5.502;2022-10-31T08:50:25;11.80;99.90
18611;DHT22;9435;52.122;5.502;2022-10-31T08:52:52;11.80;99.90
18611;DHT22;9435;52.122;5.502;2022-10-31T08:55:20;11.90;99.90
18611;DHT22;9435;52.122;5.502;2022-10-31T08:57:48;12.00;99.90
18611;DHT22;9435;52.122;5.502;2022-10-31T09:00:20;12.10;99.90
18611;DHT22;9435;52.122;5.502;2022-10-31T09:02:47;12.20;99.90
18611;DHT22;9435;52.122;5.502;2022-10-31T09:05:14;12.30;99.90
18611;DHT22;9435;52.122;5.502;2022-10-31T09:07:41;12.40;99.90
18611;DHT22;9435;52.122;5.502;2022-10-31T09:10:08;12.40;99.90
18611;DHT22;9435;52.122;5.502;2022-10-31T09:12:35;12.40;99.90
18611;DHT22;9435;52.122;5.502;2022-10-31T09:15:04;12.60;99.90
18611;DHT22;9435;52.122;5.502;2022-10-31T09:17:32;12.60;99.90
18611;DHT22;9435;52.122;5.502;2022-10-31T09:19:59;12.70;99.90
18611;DHT22;9435;52.122;5.502;2022-10-31T09:22:25;12.80;99.90
18611;DHT22;9435;52.122;5.502;2022-10-31T09:24:52;13.00;99.90
18611;DHT22;9435;52.122;5.502;2022-10-31T09:27:19;13.10;99.90
18611;DHT22;9435;52.122;5.502;2022-10-31T09:29:46;13.30;99.90
18611;DHT22;9435;52.122;5.502;2022-10-31T09:32:15;13.30;99.90
18611;DHT22;9435;52.122;5.502;2022-10-31T09:34:41;13.30;99.90
18611;DHT22;9435;52.122;5.502;2022-10-31T09:37:08;13.40;99.90
18611;DHT22;9435;52.122;5.502;2022-10-31T09:39:35;13.40;99.90
18611;DHT22;9435;52.122;5.502;2022-10-31T09:42:23;13.40;99.90
18611;DHT22;9435;52.122;5.502;2022-10-31T09:44:59;13.50;99.90
18611;DHT22;9435;52.122;5.502;2022-10-31T09:47:39;13.50;99.90
18611;DHT22;9435;52.122;5.502;2022-10-31T09:50:14;13.60;99.90
18611;DHT22;9435;52.122;5.502;2022-10-31T09:52:47;13.70;99.90
18611;DHT22;9435;52.122;5.502;2022-10-31T09:55:30;13.70;99.90
18611;DHT22;9435;52.122;5.502;2022-10-31T09:57:58;13.80;99.90
18611;DHT22;9435;52.122;5.502;2022-10-31T10:00:26;14.00;99.90
18611;DHT22;9435;52.122;5.502;2022-10-31T10:02:59;14.10;99.90
18611;DHT22;9435;52.122;5.502;2022-10-31T10:05:34;14.20;99.90
18611;DHT22;9435;52.122;5.502;2022-10-31T10:08:09;14.20;99.90
18611;DHT22;9435;52.122;5.502;2022-10-31T10:10:45;14.30;99.90
18611;DHT22;9435;52.122;5.502;2022-10-31T10:13:35;14.40;99.90
18611;DHT22;9435;52.122;5.502;2022-10-31T10:16:17;14.50;99.90
18611;DHT22;9435;52.122;5.502;2022-10-31T10:18:59;14.50;99.90
18611;DHT22;9435;52.122;5.502;2022-10-31T10:21:36;14.60;99.90
18611;DHT22;9435;52.122;5.502;2022-10-31T10:24:17;14.70;99.90
18611;DHT22;9435;52.122;5.502;2022-10-31T10:26:52;14.70;99.90
18611;DHT22;9435;52.122;5.502;2022-10-31T10:29:31;14.80;99.90
18611;DHT22;9435;52.122;5.502;2022-10-31T10:32:03;14.90;99.90
18611;DHT22;9435;52.122;5.502;2022-10-31T10:34:36;14.90;99.90
18611;DHT22;9435;52.122;5.502;2022-10-31T10:37:07;15.00;99.90
18611;DHT22;9435;52.122;5.502;2022-10-31T10:39:38;15.00;99.90
18611;DHT22;9435;52.122;5.502;2022-10-31T10:42:11;15.10;99.90
18611;DHT22;9435;52.122;5.502;2022-10-31T10:44:56;15.20;99.90
18611;DHT22;9435;52.122;5.502;2022-10-31T10:47:42;15.20;99.90
18611;DHT22;9435;52.122;5.502;2022-10-31T10:50:14;15.30;99.90
18611;DHT22;9435;52.122;5.502;2022-10-31T10:52:48;15.30;99.90
18611;DHT22;9435;52.122;5.502;2022-10-31T10:55:28;15.40;99.90
18611;DHT22;9435;52.122;5.502;2022-10-31T10:58:01;15.40;99.90
18611;DHT22;9435;52.122;5.502;2022-10-31T11:00:31;15.50;99.90
18611;DHT22;9435;52.122;5.502;2022-10-31T11:02:58;15.50;99.90
18611;DHT22;9435;52.122;5.502;2022-10-31T11:05:33;15.60;99.90
18611;DHT22;9435;52.122;5.502;2022-10-31T11:08:01;15.60;99.90
18611;DHT22;9435;52.122;5.502;2022-10-31T11:10:29;15.70;99.90
18611;DHT22;9435;52.122;5.502;2022-10-31T11:13:06;15.70;99.90
18611;DHT22;9435;52.122;5.502;2022-10-31T11:15:51;15.70;99.90
18611;DHT22;9435;52.122;5.502;2022-10-31T11:18:21;15.70;99.90
18611;DHT22;9435;52.122;5.502;2022-10-31T11:20:53;15.60;99.90
18611;DHT22;9435;52.122;5.502;2022-10-31T11:23:23;15.60;99.90
18611;DHT22;9435;52.122;5.502;2022-10-31T11:25:55;15.60;99.90
18611;DHT22;9435;52.122;5.502;2022-10-31T11:28:23;15.70;99.90
18611;DHT22;9435;52.122;5.502;2022-10-31T11:30:52;15.70;99.90
18611;DHT22;9435;52.122;5.502;2022-10-31T11:33:24;15.70;99.90
18611;DHT22;9435;52.122;5.502;2022-10-31T11:35:55;15.70;99.90
18611;DHT22;9435;52.122;5.502;2022-10-31T11:38:24;15.70;99.90
18611;DHT22;9435;52.122;5.502;2022-10-31T11:40:54;15.70;99.90
18611;DHT22;9435;52.122;5.502;2022-10-31T11:43:22;15.70;99.90
18611;DHT22;9435;52.122;5.502;2022-10-31T11:45:50;15.80;99.90
18611;DHT22;9435;52.122;5.502;2022-10-31T11:48:19;15.70;99.90
18611;DHT22;9435;52.122;5.502;2022-10-31T11:50:52;15.70;99.90
18611;DHT22;9435;52.122;5.502;2022-10-31T11:53:26;15.70;99.90
18611;DHT22;9435;52.122;5.502;2022-10-31T11:56:05;15.70;99.90
18611;DHT22;9435;52.122;5.502;2022-10-31T11:58:33;15.70;99.90
18611;DHT22;9435;52.122;5.502;2022-10-31T12:01:00;15.70;99.90
18611;DHT22;9435;52.122;5.502;2022-10-31T12:03:33;15.70;99.90
18611;DHT22;9435;52.122;5.502;2022-10-31T12:06:06;15.80;99.90
18611;DHT22;9435;52.122;5.502;2022-10-31T12:08:36;15.70;99.90
18611;DHT22;9435;52.122;5.502;2022-10-31T12:11:13;15.70;99.90
18611;DHT22;9435;52.122;5.502;2022-10-31T12:13:50;15.70;99.90
18611;DHT22;9435;52.122;5.502;2022-10-31T12:16:25;15.70;99.90
18611;DHT22;9435;52.122;5.502;2022-10-31T12:18:59;15.70;99.90
18611;DHT22;9435;52.122;5.502;2022-10-31T12:21:51;15.70;99.90
18611;DHT22;9435;52.122;5.502;2022-10-31T12:24:32;15.80;99.90
18611;DHT22;9435;52.122;5.502;2022-10-31T12:27:06;15.80;99.90
18611;DHT22;9435;52.122;5.502;2022-10-31T12:29:47;15.80;99.90
18611;DHT22;9435;52.122;5.502;2022-10-31T12:32:28;15.80;99.90
18611;DHT22;9435;52.122;5.502;2022-10-31T12:35:24;15.90;99.90
18611;DHT22;9435;52.122;5.502;2022-10-31T12:41:03;16.00;99.90
18611;DHT22;9435;52.122;5.502;2022-10-31T12:43:43;16.10;99.90
18611;DHT22;9435;52.122;5.502;2022-10-31T12:46:18;16.10;99.90
18611;DHT22;9435;52.122;5.502;2022-10-31T12:49:13;16.20;99.90
18611;DHT22;9435;52.122;5.502;2022-10-31T12:51:50;16.30;99.90
18611;DHT22;9435;52.122;5.502;2022-10-31T12:54:32;16.40;99.90
18611;DHT22;9435;52.122;5.502;2022-10-31T12:57:08;16.40;99.90
18611;DHT22;9435;52.122;5.502;2022-10-31T12:59:42;16.50;99.90
18611;DHT22;9435;52.122;5.502;2022-10-31T13:02:16;16.50;99.90
18611;DHT22;9435;52.122;5.502;2022-10-31T13:04:48;16.50;99.90
18611;DHT22;9435;52.122;5.502;2022-10-31T13:07:20;16.60;99.90
18611;DHT22;9435;52.122;5.502;2022-10-31T13:09:53;16.60;99.90
18611;DHT22;9435;52.122;5.502;2022-10-31T13:12:24;16.60;99.90
18611;DHT22;9435;52.122;5.502;2022-10-31T13:14:54;16.60;99.90
18611;DHT22;9435;52.122;5.502;2022-10-31T13:17:26;16.70;99.90
18611;DHT22;9435;52.122;5.502;2022-10-31T13:20:02;16.80;99.90
18611;DHT22;9435;52.122;5.502;2022-10-31T13:22:32;16.80;99.90
18611;DHT22;9435;52.122;5.502;2022-10-31T13:25:09;16.80;99.90
18611;DHT22;9435;52.122;5.502;2022-10-31T13:27:44;16.80;99.90
18611;DHT22;9435;52.122;5.502;2022-10-31T13:30:15;16.90;99.90
18611;DHT22;9435;52.122;5.502;2022-10-31T13:32:51;16.80;99.90
18611;DHT22;9435;52.122;5.502;2022-10-31T13:35:25;16.80;99.90
18611;DHT22;9435;52.122;5.502;2022-10-31T13:38:02;16.80;99.90
18611;DHT22;9435;52.122;5.502;2022-10-31T13:40:36;16.90;99.90
18611;DHT22;9435;52.122;5.502;2022-10-31T13:43:13;16.80;99.90
18611;DHT22;9435;52.122;5.502;2022-10-31T13:45:50;16.90;99.90
18611;DHT22;9435;52.122;5.502;2022-10-31T13:51:03;17.00;99.90
18611;DHT22;9435;52.122;5.502;2022-10-31T13:53:45;17.10;99.90
18611;DHT22;9435;52.122;5.502;2022-10-31T13:56:25;17.10;99.90
18611;DHT22;9435;52.122;5.502;2022-10-31T13:59:16;17.10;99.90
18611;DHT22;9435;52.122;5.502;2022-10-31T14:01:48;17.10;99.90
18611;DHT22;9435;52.122;5.502;2022-10-31T14:04:17;17.10;99.90
18611;DHT22;9435;52.122;5.502;2022-10-31T14:06:54;17.20;99.90
18611;DHT22;9435;52.122;5.502;2022-10-31T14:09:28;17.10;99.90
18611;DHT22;9435;52.122;5.502;2022-10-31T14:11:56;17.10;99.90
18611;DHT22;9435;52.122;5.502;2022-10-31T14:14:30;17.10;99.90
18611;DHT22;9435;52.122;5.502;2022-10-31T14:16:59;17.00;99.90
18611;DHT22;9435;52.122;5.502;2022-10-31T14:19:26;17.00;99.90
18611;DHT22;9435;52.122;5.502;2022-10-31T14:21:53;17.00;99.90
18611;DHT22;9435;52.122;5.502;2022-10-31T14:24:36;17.00;99.90
18611;DHT22;9435;52.122;5.502;2022-10-31T14:29:47;16.90;99.90
18611;DHT22;9435;52.122;5.502;2022-10-31T14:32:20;16.90;99.90
18611;DHT22;9435;52.122;5.502;2022-10-31T14:34:53;16.90;99.90
18611;DHT22;9435;52.122;5.502;2022-10-31T14:37:35;16.80;99.90
18611;DHT22;9435;52.122;5.502;2022-10-31T14:40:26;16.80;99.90
18611;DHT22;9435;52.122;5.502;2022-10-31T14:46:08;16.80;99.90
18611;DHT22;9435;52.122;5.502;2022-10-31T14:48:57;16.70;99.90
18611;DHT22;9435;52.122;5.502;2022-10-31T14:51:31;16.70;99.90
18611;DHT22;9435;52.122;5.502;2022-10-31T14:54:00;16.70;99.90
18611;DHT22;9435;52.122;5.502;2022-10-31T14:56:30;16.60;99.90
18611;DHT22;9435;52.122;5.502;2022-10-31T14:59:01;16.60;99.90
18611;DHT22;9435;52.122;5.502;2022-10-31T15:01:33;16.60;99.90
18611;DHT22;9435;52.122;5.502;2022-10-31T15:04:05;16.60;99.90
18611;DHT22;9435;52.122;5.502;2022-10-31T15:06:39;16.60;99.90
18611;DHT22;9435;52.122;5.502;2022-10-31T15:09:21;16.60;99.90
18611;DHT22;9435;52.122;5.502;2022-10-31T15:11:48;16.60;99.90
18611;DHT22;9435;52.122;5.502;2022-10-31T15:14:23;16.50;99.90
18611;DHT22;9435;52.122;5.502;2022-10-31T15:16:52;16.50;99.90
18611;DHT22;9435;52.122;5.502;2022-10-31T15:19:23;16.50;99.90
18611;DHT22;9435;52.122;5.502;2022-10-31T15:21:51;16.50;99.90
18611;DHT22;9435;52.122;5.502;2022-10-31T15:24:20;16.40;99.90
18611;DHT22;9435;52.122;5.502;2022-10-31T15:26:48;16.40;99.90
18611;DHT22;9435;52.122;5.502;2022-10-31T15:29:17;16.40;99.90
18611;DHT22;9435;52.122;5.502;2022-10-31T15:31:52;16.40;99.90
18611;DHT22;9435;52.122;5.502;2022-10-31T15:34:25;16.30;99.90
18611;DHT22;9435;52.122;5.502;2022-10-31T15:36:53;16.30;99.90
18611;DHT22;9435;52.122;5.502;2022-10-31T15:39:20;16.30;99.90
18611;DHT22;9435;52.122;5.502;2022-10-31T15:41:52;16.30;99.90
18611;DHT22;9435;52.122;5.502;2022-10-31T15:44:22;16.30;99.90
18611;DHT22;9435;52.122;5.502;2022-10-31T15:46:59;16.30;99.90
18611;DHT22;9435;52.122;5.502;2022-10-31T15:49:30;16.20;99.90
18611;DHT22;9435;52.122;5.502;2022-10-31T15:52:03;16.20;99.90
18611;DHT22;9435;52.122;5.502;2022-10-31T15:54:31;16.20;99.90
18611;DHT22;9435;52.122;5.502;2022-10-31T15:56:59;16.20;99.90
18611;DHT22;9435;52.122;5.502;2022-10-31T15:59:27;16.10;99.90
18611;DHT22;9435;52.122;5.502;2022-10-31T16:02:02;16.10;99.90
18611;DHT22;9435;52.122;5.502;2022-10-31T16:04:30;16.10;99.90
18611;DHT22;9435;52.122;5.502;2022-10-31T16:07:01;16.10;99.90
18611;DHT22;9435;52.122;5.502;2022-10-31T16:09:28;16.10;99.90
18611;DHT22;9435;52.122;5.502;2022-10-31T16:11:56;16.10;99.90
18611;DHT22;9435;52.122;5.502;2022-10-31T16:14:26;16.00;99.90
18611;DHT22;9435;52.122;5.502;2022-10-31T16:16:57;16.00;99.90
18611;DHT22;9435;52.122;5.502;2022-10-31T16:19:30;16.00;99.90
18611;DHT22;9435;52.122;5.502;2022-10-31T16:22:04;15.90;99.90
18611;DHT22;9435;52.122;5.502;2022-10-31T16:24:35;15.90;99.90
18611;DHT22;9435;52.122;5.502;2022-10-31T16:27:04;15.90;99.90
18611;DHT22;9435;52.122;5.502;2022-10-31T16:29:39;15.90;99.90
18611;DHT22;9435;52.122;5.502;2022-10-31T16:32:29;15.80;99.90
18611;DHT22;9435;52.122;5.502;2022-10-31T16:35:21;15.70;99.90